METAR & TAF

RJAA 262215Z 13007KT 6000 BR FEW003 BKN006 BKN020 19/17 Q1006 RMK 1ST003 5ST006 6CU020 A2973 BR NE
RJAA 262200Z 13007KT 5000 BR FEW003 BKN005 18/17 Q1007 BECMG FEW003 BKN008
RJAA 262130Z 11005KT 4500 BR FEW003 BKN004 BKN020 17/17 Q1006 BECMG 6000 NSW FEW005 BKN008
RJAA 262100Z 09004KT 3500 BR FEW002 SCT003 BKN004 17/16 Q1006 BECMG 6000 NSW FEW005 BKN008 RMK 1ST002 4ST003 7ST004 A2972
RJAA 262030Z 10006KT 3000 BR FEW002 BKN003 BKN004 17/16 Q1006 BECMG 6000 NSW
RJAA 262019Z 16004KT 080V230 2500 BR FEW002 BKN003 BKN004 17/16 Q1006 RMK 2ST002 5ST003 7ST004 A2971
RJAA 262000Z 11005KT 2000 BR FEW002 BKN003 BKN004 17/16 Q1005 NOSIG RMK 1ST002 5ST003 7ST004 A2970
RJAA 261930Z 09005KT 2200 BR FEW002 SCT003 BKN004 16/16 Q1005 NOSIG RMK 1ST002 4ST003 7ST004 A2969
RJAA 261900Z 08004KT 5000 BR FEW002 SCT003 BKN004 16/16 Q1005 TEMPO 4000 BR RMK 1ST002 4ST003 7ST004 A2969
RJAA 261830Z 08006KT 7000 FEW002 SCT003 BKN005 16/16 Q1005 TEMPO 4000 BR
RJAA 261800Z 06004KT 7000 FEW002 SCT004 BKN005 16/16 Q1005 BECMG 08005KT

TAF AMD RJAA 262117Z 2621/2800 10005KT 4000 BR FEW005 BKN008
  TEMPO 2621/2623 FEW002 BKN005
  BECMG 2622/2700 20010KT 9999 NSW FEW030
  BECMG 2706/2709 04010KT
  BECMG 2718/2721 34006KT